createdAt,value
2018-05-27T00:00:34.412Z,26.57
2018-05-27T00:01:34.394Z,26.56
2018-05-27T00:02:34.382Z,26.47
2018-05-27T00:03:34.371Z,26.53
2018-05-27T00:04:34.357Z,26.54
2018-05-27T00:05:34.344Z,26.47
2018-05-27T00:06:34.332Z,26.47
2018-05-27T00:07:34.322Z,26.53
2018-05-27T00:08:34.308Z,26.57
2018-05-27T00:09:34.298Z,26.56
2018-05-27T00:10:34.281Z,26.49
2018-05-27T00:11:34.269Z,26.59
2018-05-27T00:12:34.257Z,26.50
2018-05-27T00:13:34.243Z,26.59
2018-05-27T00:14:34.231Z,26.60
2018-05-27T00:15:34.218Z,26.59
2018-05-27T00:16:34.208Z,26.59
2018-05-27T00:17:34.195Z,26.57
2018-05-27T00:18:34.180Z,26.56
2018-05-27T00:19:34.167Z,26.53
2018-05-27T00:20:34.154Z,26.51
2018-05-27T00:21:34.142Z,26.51
2018-05-27T00:22:34.131Z,26.49
2018-05-27T00:23:34.119Z,26.60
2018-05-27T00:24:34.106Z,26.56
2018-05-27T00:25:34.091Z,26.49
2018-05-27T00:26:34.078Z,26.46
2018-05-27T00:27:34.067Z,26.57
2018-05-27T00:28:34.055Z,26.51
2018-05-27T00:29:34.043Z,26.50
2018-05-27T00:30:34.031Z,26.53
2018-05-27T00:31:34.019Z,26.53
2018-05-27T00:32:34.006Z,26.60
2018-05-27T00:33:33.989Z,26.53
2018-05-27T00:34:33.977Z,26.54
2018-05-27T00:35:33.965Z,26.54
2018-05-27T00:36:33.952Z,26.56
2018-05-27T00:37:33.937Z,26.50
2018-05-27T00:38:33.927Z,26.47
2018-05-27T00:39:33.914Z,26.51
2018-05-27T00:40:33.900Z,26.46
2018-05-27T00:41:33.892Z,26.57
2018-05-27T00:42:33.875Z,26.53
2018-05-27T00:43:33.864Z,26.53
2018-05-27T00:44:33.855Z,26.53
2018-05-27T00:45:33.837Z,26.47
2018-05-27T00:46:33.825Z,26.53
2018-05-27T00:47:33.812Z,26.47
2018-05-27T00:48:33.799Z,26.53
2018-05-27T00:49:33.787Z,26.49
2018-05-27T00:50:33.775Z,26.56
2018-05-27T00:51:33.763Z,26.46
2018-05-27T00:52:33.755Z,26.53
2018-05-27T00:53:33.737Z,26.50
2018-05-27T00:54:33.723Z,26.44
2018-05-27T00:55:33.709Z,26.47
2018-05-27T00:56:33.697Z,26.46
2018-05-27T00:57:33.685Z,26.46
2018-05-27T00:58:33.671Z,26.53
2018-05-27T00:59:33.659Z,26.49
2018-05-27T01:00:33.648Z,26.46
2018-05-27T01:01:33.634Z,26.50
2018-05-27T01:02:33.620Z,26.47
2018-05-27T01:03:33.610Z,26.46
2018-05-27T01:04:33.596Z,26.49
2018-05-27T01:05:33.586Z,26.53
2018-05-27T01:06:33.569Z,26.51
2018-05-27T01:07:33.559Z,26.49
2018-05-27T01:08:33.547Z,26.50
2018-05-27T01:09:33.534Z,26.49
2018-05-27T01:10:33.518Z,26.44
2018-05-27T01:11:33.506Z,26.47
2018-05-27T01:12:33.496Z,26.47
2018-05-27T01:13:33.482Z,26.49
2018-05-27T01:14:33.469Z,26.46
2018-05-27T01:15:33.459Z,26.42
2018-05-27T01:16:33.442Z,26.47
2018-05-27T01:17:33.430Z,26.49
2018-05-27T01:18:33.418Z,26.41
2018-05-27T01:19:33.404Z,26.44
2018-05-27T01:20:33.393Z,26.46
2018-05-27T01:21:33.400Z,26.47
2018-05-27T01:22:33.369Z,26.49
2018-05-27T01:23:33.353Z,26.41
2018-05-27T01:24:33.343Z,26.44
2018-05-27T01:25:33.329Z,26.46
2018-05-27T01:26:33.317Z,26.49
2018-05-27T01:27:33.302Z,26.46
2018-05-27T01:28:33.290Z,26.46
2018-05-27T01:29:33.277Z,26.44
2018-05-27T01:30:33.265Z,26.41
2018-05-27T01:31:33.255Z,26.49
2018-05-27T01:32:33.241Z,26.49
2018-05-27T01:33:33.229Z,26.44
2018-05-27T01:34:33.214Z,26.44
2018-05-27T01:35:33.207Z,26.44
2018-05-27T01:36:33.192Z,26.39
2018-05-27T01:37:33.175Z,26.49
2018-05-27T01:38:33.166Z,26.41
2018-05-27T01:39:33.149Z,26.44
2018-05-27T01:40:33.137Z,26.42
2018-05-27T01:41:33.127Z,26.46
2018-05-27T01:42:33.112Z,26.46
2018-05-27T01:43:33.099Z,26.47
2018-05-27T01:44:33.088Z,26.50
2018-05-27T01:45:33.073Z,26.46
2018-05-27T01:46:33.061Z,26.50
2018-05-27T01:47:33.048Z,26.44
2018-05-27T01:48:33.038Z,26.47
2018-05-27T01:49:33.024Z,26.44
2018-05-27T01:50:33.010Z,26.47
2018-05-27T01:51:32.999Z,26.47
2018-05-27T01:52:32.985Z,26.47
2018-05-27T01:53:32.973Z,26.47
2018-05-27T01:54:32.960Z,26.44
2018-05-27T01:55:32.947Z,26.50
2018-05-27T01:56:32.932Z,26.51
2018-05-27T01:57:32.923Z,26.47
2018-05-27T01:58:32.910Z,26.47
2018-05-27T01:59:32.896Z,26.42
2018-05-27T02:00:32.883Z,26.46
2018-05-27T02:01:32.870Z,26.38
2018-05-27T02:02:32.859Z,26.47
2018-05-27T02:03:32.846Z,26.50
2018-05-27T02:04:32.835Z,26.50
2018-05-27T02:05:32.818Z,26.42
2018-05-27T02:06:32.805Z,26.44
2018-05-27T02:07:32.799Z,26.36
2018-05-27T02:08:32.780Z,26.41
2018-05-27T02:09:32.770Z,26.47
2018-05-27T02:10:32.755Z,26.36
2018-05-27T02:11:32.742Z,26.42
2018-05-27T02:12:32.729Z,26.38
2018-05-27T02:13:32.717Z,26.47
2018-05-27T02:14:32.703Z,26.42
2018-05-27T02:15:32.692Z,26.44
2018-05-27T02:16:32.682Z,26.38
2018-05-27T02:17:32.664Z,26.41
2018-05-27T02:18:32.655Z,26.39
2018-05-27T02:19:32.640Z,26.42
2018-05-27T02:20:32.628Z,26.41
2018-05-27T02:21:32.615Z,26.36
2018-05-27T02:22:32.603Z,26.39
2018-05-27T02:23:32.591Z,26.39
2018-05-27T02:24:32.577Z,26.38
2018-05-27T02:25:32.564Z,26.39
2018-05-27T02:26:32.551Z,26.44
2018-05-27T02:27:32.540Z,26.39
2018-05-27T02:28:32.526Z,26.41
2018-05-27T02:29:32.514Z,26.39
2018-05-27T02:30:32.502Z,26.36
2018-05-27T02:31:32.490Z,26.36
2018-05-27T02:32:32.476Z,26.46
2018-05-27T02:33:32.462Z,26.36
2018-05-27T02:34:32.461Z,26.44
2018-05-27T02:35:32.437Z,26.44
2018-05-27T02:36:32.425Z,26.32
2018-05-27T02:37:32.415Z,26.46
2018-05-27T02:38:32.399Z,26.39
2018-05-27T02:39:32.388Z,26.46
2018-05-27T02:40:32.373Z,26.36
2018-05-27T02:41:32.359Z,26.42
2018-05-27T02:42:32.348Z,26.34
2018-05-27T02:43:32.334Z,26.38
2018-05-27T02:44:32.322Z,26.42
2018-05-27T02:45:32.310Z,26.44
2018-05-27T02:46:32.294Z,26.39
2018-05-27T02:47:32.286Z,26.36
2018-05-27T02:48:32.269Z,26.44
2018-05-27T02:49:32.257Z,26.39
2018-05-27T02:50:32.247Z,26.32
2018-05-27T02:51:32.235Z,26.38
2018-05-27T02:52:32.220Z,26.31
2018-05-27T02:53:32.208Z,26.36
2018-05-27T02:54:32.194Z,26.39
2018-05-27T02:55:32.182Z,26.41
2018-05-27T02:56:32.170Z,26.38
2018-05-27T02:57:32.155Z,26.36
2018-05-27T02:58:32.144Z,26.41
2018-05-27T02:59:32.128Z,26.39
2018-05-27T03:00:32.120Z,26.35
2018-05-27T03:01:32.104Z,26.39
2018-05-27T03:02:32.090Z,26.31
2018-05-27T03:03:32.079Z,26.39
2018-05-27T03:04:32.066Z,26.39
2018-05-27T03:05:32.052Z,26.34
2018-05-27T03:06:32.039Z,26.39
2018-05-27T03:07:32.030Z,26.39
2018-05-27T03:08:32.016Z,26.41
2018-05-27T03:09:32.000Z,26.36
2018-05-27T03:10:31.990Z,26.35
2018-05-27T03:11:31.976Z,26.35
2018-05-27T03:12:31.970Z,26.35
2018-05-27T03:13:31.949Z,26.31
2018-05-27T03:14:31.938Z,26.35
2018-05-27T03:15:31.928Z,26.38
2018-05-27T03:16:31.912Z,26.39
2018-05-27T03:17:31.900Z,26.31
2018-05-27T03:18:31.885Z,26.31
2018-05-27T03:19:31.874Z,26.32
2018-05-27T03:20:31.861Z,26.36
2018-05-27T03:21:31.847Z,26.28
2018-05-27T03:22:31.834Z,26.34
2018-05-27T03:23:31.823Z,26.36
2018-05-27T03:24:31.809Z,26.34
2018-05-27T03:25:31.828Z,26.34
2018-05-27T03:26:31.782Z,26.32
2018-05-27T03:27:31.771Z,26.29
2018-05-27T03:28:31.758Z,26.34
2018-05-27T03:29:31.745Z,26.31
2018-05-27T03:30:31.732Z,26.34
2018-05-27T03:31:31.720Z,26.34
2018-05-27T03:32:31.707Z,26.31
2018-05-27T03:33:31.698Z,26.31
2018-05-27T03:34:31.680Z,26.31
2018-05-27T03:35:31.667Z,26.28
2018-05-27T03:36:31.656Z,26.32
2018-05-27T03:37:31.643Z,26.34
2018-05-27T03:38:31.629Z,26.24
2018-05-27T03:39:31.617Z,26.32
2018-05-27T03:40:31.605Z,26.29
2018-05-27T03:41:31.590Z,26.28
2018-05-27T03:42:31.578Z,26.32
2018-05-27T03:43:31.566Z,26.24
2018-05-27T03:44:31.552Z,26.34
2018-05-27T03:45:31.540Z,26.32
2018-05-27T03:46:31.528Z,26.28
2018-05-27T03:47:31.514Z,26.31
2018-05-27T03:48:31.504Z,26.31
2018-05-27T03:49:31.490Z,26.32
2018-05-27T03:50:31.476Z,26.31
2018-05-27T03:51:31.461Z,26.31
2018-05-27T03:52:31.453Z,26.34
2018-05-27T03:53:31.436Z,26.28
2018-05-27T03:54:31.427Z,26.29
2018-05-27T03:55:31.412Z,26.34
2018-05-27T03:56:31.398Z,26.23
2018-05-27T03:57:31.386Z,26.24
2018-05-27T03:58:31.371Z,26.32
2018-05-27T03:59:31.359Z,26.20
2018-05-27T04:00:31.349Z,26.28
2018-05-27T04:01:31.335Z,26.23
2018-05-27T04:02:31.321Z,26.32
2018-05-27T04:03:31.310Z,26.31
2018-05-27T04:04:31.295Z,26.21
2018-05-27T04:05:31.281Z,26.24
2018-05-27T04:06:31.269Z,26.31
2018-05-27T04:07:31.255Z,26.23
2018-05-27T04:08:31.243Z,26.28
2018-05-27T04:09:31.231Z,26.24
2018-05-27T04:10:31.222Z,26.20
2018-05-27T04:11:31.205Z,26.31
2018-05-27T04:12:31.194Z,26.29
2018-05-27T04:13:31.181Z,26.35
2018-05-27T04:14:31.168Z,26.31
2018-05-27T04:15:31.168Z,26.28
2018-05-27T04:16:31.140Z,26.31
2018-05-27T04:17:31.128Z,26.32
2018-05-27T04:18:31.115Z,26.35
2018-05-27T04:19:31.101Z,26.29
2018-05-27T04:20:31.090Z,26.23
2018-05-27T04:21:31.075Z,26.23
2018-05-27T04:22:31.062Z,26.27
2018-05-27T04:23:31.051Z,26.20
2018-05-27T04:24:31.039Z,26.20
2018-05-27T04:25:31.023Z,26.31
2018-05-27T04:26:31.013Z,26.24
2018-05-27T04:27:31.004Z,26.29
2018-05-27T04:28:31.071Z,26.27
2018-05-27T04:29:30.973Z,26.21
2018-05-27T04:30:30.960Z,26.32
2018-05-27T04:31:30.950Z,26.29
2018-05-27T04:32:30.935Z,26.27
2018-05-27T04:33:30.920Z,26.29
2018-05-27T04:34:30.909Z,26.24
2018-05-27T04:35:30.896Z,26.29
2018-05-27T04:36:30.918Z,26.20
2018-05-27T04:37:30.872Z,26.23
2018-05-27T04:38:30.858Z,26.32
2018-05-27T04:39:30.843Z,26.32
2018-05-27T04:40:30.834Z,26.27
2018-05-27T04:41:30.821Z,26.19
2018-05-27T04:42:30.808Z,26.21
2018-05-27T04:43:30.794Z,26.19
2018-05-27T04:44:30.785Z,26.27
2018-05-27T04:45:30.768Z,26.24
2018-05-27T04:46:30.754Z,26.31
2018-05-27T04:47:30.741Z,26.24
2018-05-27T04:48:30.731Z,26.24
2018-05-27T04:49:30.714Z,26.19
2018-05-27T04:50:30.704Z,26.19
2018-05-27T04:51:30.689Z,26.19
2018-05-27T04:52:30.678Z,26.23
2018-05-27T04:53:30.665Z,26.17
2018-05-27T04:54:30.650Z,26.19
2018-05-27T04:55:30.639Z,26.23
2018-05-27T04:56:30.626Z,26.23
2018-05-27T04:57:30.615Z,26.27
2018-05-27T04:58:30.600Z,26.20
2018-05-27T04:59:30.587Z,26.24
2018-05-27T05:00:30.573Z,26.21
2018-05-27T05:01:30.566Z,26.20
2018-05-27T05:02:30.547Z,26.20
2018-05-27T05:03:30.535Z,26.28
2018-05-27T05:04:30.523Z,26.21
2018-05-27T05:05:30.508Z,26.19
2018-05-27T05:06:30.495Z,26.19
2018-05-27T05:07:30.483Z,26.13
2018-05-27T05:08:30.471Z,26.20
2018-05-27T05:09:30.505Z,26.28
2018-05-27T05:10:30.446Z,26.20
2018-05-27T05:11:37.637Z,26.19
2018-05-27T05:13:23.881Z,26.27
2018-05-27T05:14:23.339Z,26.16
2018-05-27T05:16:16.227Z,26.23
2018-05-27T05:17:16.206Z,26.19
2018-05-27T05:19:09.065Z,26.23
2018-05-27T05:20:09.046Z,26.29
2018-05-27T05:22:02.057Z,26.19
2018-05-27T05:23:01.997Z,26.29
2018-05-27T05:24:54.870Z,26.16
2018-05-27T05:25:54.853Z,26.20
2018-05-27T05:27:47.738Z,26.29
2018-05-27T05:28:47.708Z,26.23
2018-05-27T05:30:40.566Z,26.20
2018-05-27T05:31:40.549Z,26.19
2018-05-27T05:32:40.539Z,26.20
2018-05-27T05:33:40.525Z,26.21
2018-05-27T05:34:40.513Z,26.28
2018-05-27T05:35:40.497Z,26.17
2018-05-27T05:36:40.492Z,26.24
2018-05-27T05:37:40.472Z,26.20
2018-05-27T05:38:40.460Z,26.24
2018-05-27T05:39:40.447Z,26.28
2018-05-27T05:40:40.436Z,26.21
2018-05-27T05:41:40.420Z,26.28
2018-05-27T05:42:40.408Z,26.23
2018-05-27T05:43:40.452Z,26.19
2018-05-27T05:44:40.386Z,26.21
2018-05-27T05:45:40.369Z,26.21
2018-05-27T05:46:40.361Z,26.21
2018-05-27T05:47:40.343Z,26.19
2018-05-27T05:48:40.331Z,26.19
2018-05-27T05:49:40.320Z,26.20
2018-05-27T05:50:40.310Z,26.19
2018-05-27T05:51:40.295Z,26.27
2018-05-27T05:52:40.279Z,26.20
2018-05-27T05:53:40.266Z,26.16
2018-05-27T05:54:40.253Z,26.19
2018-05-27T05:55:40.240Z,26.21
2018-05-27T05:56:40.230Z,26.16
2018-05-27T05:57:40.215Z,26.16
2018-05-27T05:58:40.210Z,26.19
2018-05-27T05:59:40.188Z,26.24
2018-05-27T06:00:40.176Z,26.27
2018-05-27T06:01:40.161Z,26.27
2018-05-27T06:02:40.150Z,26.19
2018-05-27T06:03:40.139Z,26.27
2018-05-27T06:04:40.131Z,26.24
2018-05-27T06:05:40.112Z,26.20
2018-05-27T06:06:40.103Z,26.19
2018-05-27T06:07:40.085Z,26.28
2018-05-27T06:08:40.074Z,26.24
2018-05-27T06:09:40.060Z,26.23
2018-05-27T06:10:40.046Z,26.23
2018-05-27T06:11:40.035Z,26.21
2018-05-27T06:12:40.023Z,26.20
2018-05-27T06:13:40.017Z,26.17
2018-05-27T06:14:39.997Z,26.21
2018-05-27T06:15:39.981Z,26.23
2018-05-27T06:16:39.970Z,26.23
2018-05-27T06:17:39.955Z,26.28
2018-05-27T06:18:39.943Z,26.16
2018-05-27T06:19:39.959Z,26.16
2018-05-27T06:20:39.918Z,26.28
2018-05-27T06:21:39.904Z,26.13
2018-05-27T06:22:39.893Z,26.09
2018-05-27T06:23:39.878Z,26.21
2018-05-27T06:24:39.866Z,26.19
2018-05-27T06:25:39.874Z,26.27
2018-05-27T06:26:39.840Z,26.24
2018-05-27T06:27:39.827Z,26.27
2018-05-27T06:28:39.814Z,26.19
2018-05-27T06:29:39.800Z,26.09
2018-05-27T06:30:39.788Z,26.17
2018-05-27T06:31:39.776Z,26.17
2018-05-27T06:32:39.763Z,26.23
2018-05-27T06:33:39.752Z,26.24
2018-05-27T06:34:39.743Z,26.29
2018-05-27T06:35:39.723Z,26.24
2018-05-27T06:36:39.711Z,26.16
2018-05-27T06:37:39.696Z,26.21
2018-05-27T06:38:39.689Z,26.12
2018-05-27T06:39:39.674Z,26.27
2018-05-27T06:40:39.659Z,26.29
2018-05-27T06:41:39.646Z,26.28
2018-05-27T06:42:39.633Z,26.28
2018-05-27T06:43:39.621Z,26.20
2018-05-27T06:44:39.607Z,26.13
2018-05-27T06:45:39.594Z,26.19
2018-05-27T06:46:39.579Z,26.16
2018-05-27T06:47:39.570Z,26.19
2018-05-27T06:48:39.557Z,26.29
2018-05-27T06:49:39.542Z,26.20
2018-05-27T06:50:39.529Z,26.13
2018-05-27T06:51:39.516Z,26.19
2018-05-27T06:52:39.505Z,26.23
2018-05-27T06:53:39.490Z,26.28
2018-05-27T06:54:39.485Z,26.20
2018-05-27T06:55:39.466Z,26.23
2018-05-27T06:56:39.452Z,26.27
2018-05-27T06:57:39.439Z,26.23
2018-05-27T06:58:39.426Z,26.23
2018-05-27T06:59:39.414Z,26.16
2018-05-27T07:00:39.400Z,26.09
2018-05-27T07:01:39.386Z,26.11
2018-05-27T07:02:39.375Z,26.04
2018-05-27T07:03:39.361Z,26.03
2018-05-27T07:04:39.390Z,26.03
2018-05-27T07:05:39.336Z,25.91
2018-05-27T07:06:39.328Z,25.91
2018-05-27T07:07:39.311Z,25.86
2018-05-27T07:08:39.296Z,25.86
2018-05-27T07:09:39.283Z,25.89
2018-05-27T07:10:39.271Z,25.96
2018-05-27T07:11:39.286Z,25.81
2018-05-27T07:12:39.246Z,25.83
2018-05-27T07:13:39.230Z,25.79
2018-05-27T07:14:39.220Z,25.74
2018-05-27T07:15:39.207Z,25.75
2018-05-27T07:16:39.193Z,25.75
2018-05-27T07:17:39.181Z,25.74
2018-05-27T07:18:39.168Z,25.75
2018-05-27T07:19:39.153Z,25.64
2018-05-27T07:20:39.141Z,25.69
2018-05-27T07:21:39.126Z,25.72
2018-05-27T07:22:39.115Z,25.64
2018-05-27T07:23:39.101Z,25.66
2018-05-27T07:24:39.090Z,25.64
2018-05-27T07:25:39.075Z,25.66
2018-05-27T07:26:39.062Z,25.69
2018-05-27T07:27:39.047Z,25.63
2018-05-27T07:28:39.037Z,25.67
2018-05-27T07:29:39.022Z,25.69
2018-05-27T07:30:39.009Z,25.66
2018-05-27T07:31:38.997Z,25.69
2018-05-27T07:32:38.984Z,25.72
2018-05-27T07:33:38.970Z,25.66
2018-05-27T07:34:38.989Z,25.63
2018-05-27T07:35:38.943Z,25.66
2018-05-27T07:36:38.932Z,25.64
2018-05-27T07:37:38.921Z,25.75
2018-05-27T07:38:38.907Z,25.66
2018-05-27T07:39:38.891Z,25.71
2018-05-27T07:40:38.910Z,25.71
2018-05-27T07:41:38.866Z,25.76
2018-05-27T07:42:38.851Z,25.75
2018-05-27T07:43:38.842Z,25.78
2018-05-27T07:44:38.826Z,25.75
2018-05-27T07:45:38.813Z,25.76
2018-05-27T07:46:38.835Z,25.78
2018-05-27T07:47:38.786Z,25.74
2018-05-27T07:48:38.774Z,25.76
2018-05-27T07:49:38.762Z,25.76
2018-05-27T07:50:38.747Z,25.79
2018-05-27T07:51:38.736Z,25.79
2018-05-27T07:52:38.800Z,25.72
2018-05-27T07:53:38.707Z,25.82
2018-05-27T07:54:38.695Z,25.79
2018-05-27T07:55:38.683Z,25.75
2018-05-27T07:56:38.669Z,25.78
2018-05-27T07:57:38.655Z,25.79
2018-05-27T07:58:38.643Z,25.82
2018-05-27T07:59:38.629Z,25.82
2018-05-27T08:00:38.618Z,25.76
2018-05-27T08:01:38.606Z,25.82
2018-05-27T08:02:38.593Z,25.82
2018-05-27T08:03:38.576Z,25.85
2018-05-27T08:04:38.563Z,25.91
2018-05-27T08:05:38.548Z,25.94
2018-05-27T08:06:38.538Z,25.90
2018-05-27T08:07:38.531Z,25.94
2018-05-27T08:08:38.511Z,25.90
2018-05-27T08:09:38.496Z,25.96
2018-05-27T08:10:38.485Z,25.90
2018-05-27T08:11:38.477Z,25.90
2018-05-27T08:12:38.464Z,25.89
2018-05-27T08:13:38.444Z,25.94
2018-05-27T08:14:38.433Z,25.97
2018-05-27T08:15:38.419Z,26.01
2018-05-27T08:16:38.408Z,26.00
2018-05-27T08:19:10.046Z,25.93
2018-05-27T08:20:10.020Z,26.01
2018-05-27T08:22:02.964Z,25.98
2018-05-27T08:23:02.948Z,26.08
2018-05-27T08:24:55.932Z,26.12
2018-05-27T08:25:55.897Z,26.21
2018-05-27T08:27:48.769Z,26.24
2018-05-27T08:28:48.750Z,26.16
2018-05-27T08:30:41.633Z,26.27
2018-05-27T08:31:41.607Z,26.20
2018-05-27T08:33:34.576Z,26.24
2018-05-27T08:34:34.557Z,26.35
2018-05-27T08:36:27.438Z,26.35
2018-05-27T08:37:27.414Z,26.32
2018-05-27T08:39:20.281Z,26.44
2018-05-27T08:40:20.273Z,26.42
2018-05-27T08:42:13.244Z,26.46
2018-05-27T08:43:13.217Z,26.44
2018-05-27T08:45:06.189Z,26.50
2018-05-27T08:46:06.209Z,26.60
2018-05-27T08:47:59.040Z,26.59
2018-05-27T08:48:59.067Z,26.50
2018-05-27T08:50:51.878Z,26.53
2018-05-27T08:51:51.861Z,26.59
2018-05-27T08:53:44.722Z,26.59
2018-05-27T08:54:44.708Z,26.64
2018-05-27T08:58:09.147Z,26.69
2018-05-27T08:59:09.115Z,26.68
2018-05-27T09:01:02.048Z,26.64
2018-05-27T09:02:01.958Z,26.65
2018-05-27T09:03:54.841Z,26.75
2018-05-27T09:04:54.809Z,26.71
2018-05-27T09:06:47.667Z,26.72
2018-05-27T09:07:47.649Z,26.79
2018-05-27T09:09:40.607Z,26.84
2018-05-27T09:10:40.580Z,26.87
2018-05-27T09:12:33.516Z,26.86
2018-05-27T09:13:33.498Z,26.88
2018-05-27T09:15:26.530Z,26.86
2018-05-27T09:16:26.452Z,26.94
2018-05-27T09:18:19.324Z,27.03
2018-05-27T09:19:19.305Z,27.01
2018-05-27T09:21:12.188Z,27.01
2018-05-27T09:22:12.159Z,26.98
2018-05-27T09:24:05.028Z,26.98
2018-05-27T09:25:05.031Z,27.08
2018-05-27T09:26:57.880Z,27.03
2018-05-27T09:27:57.850Z,27.08
2018-05-27T09:29:50.744Z,27.09
2018-05-27T09:30:50.730Z,27.08
2018-05-27T09:31:50.691Z,27.09
2018-05-27T09:32:50.676Z,27.06
2018-05-27T09:33:50.665Z,27.08
2018-05-27T09:34:50.654Z,27.08
2018-05-27T09:35:50.638Z,27.12
2018-05-27T09:36:50.626Z,27.16
2018-05-27T09:37:50.612Z,27.23
2018-05-27T09:38:50.609Z,27.25
2018-05-27T09:39:50.590Z,27.20
2018-05-27T09:40:50.574Z,27.23
2018-05-27T09:41:50.562Z,27.16
2018-05-27T09:42:50.550Z,27.18
2018-05-27T09:43:50.538Z,27.25
2018-05-27T09:44:50.524Z,27.31
2018-05-27T09:45:50.514Z,27.31
2018-05-27T09:46:50.503Z,27.27
2018-05-27T09:47:50.486Z,27.30
2018-05-27T09:48:50.473Z,27.24
2018-05-27T09:49:50.461Z,27.24
2018-05-27T09:50:50.450Z,27.31
2018-05-27T09:51:50.435Z,27.30
2018-05-27T09:52:50.424Z,27.39
2018-05-27T09:53:50.414Z,27.35
2018-05-27T09:54:50.403Z,27.39
2018-05-27T09:55:50.387Z,27.27
2018-05-27T09:56:50.373Z,27.39
2018-05-27T09:57:50.408Z,27.45
2018-05-27T09:58:50.378Z,27.25
2018-05-27T09:59:50.338Z,27.39
2018-05-27T10:00:50.331Z,27.38
2018-05-27T10:01:50.311Z,27.38
2018-05-27T10:02:50.297Z,27.40
2018-05-27T10:03:50.286Z,27.39
2018-05-27T10:04:50.272Z,27.39
2018-05-27T10:05:50.260Z,27.43
2018-05-27T10:06:50.250Z,27.31
2018-05-27T10:07:50.235Z,27.30
2018-05-27T10:08:50.222Z,27.34
2018-05-27T10:09:50.211Z,27.34
2018-05-27T10:10:50.203Z,27.42
2018-05-27T10:11:50.199Z,27.38
2018-05-27T10:12:50.196Z,27.46
2018-05-27T10:13:50.164Z,27.40
2018-05-27T10:14:50.150Z,27.34
2018-05-27T10:17:21.807Z,27.52
2018-05-27T10:18:21.770Z,27.53
2018-05-27T10:20:14.643Z,27.50
2018-05-27T10:21:14.683Z,27.48
2018-05-27T10:23:07.510Z,27.50
2018-05-27T10:24:07.570Z,27.49
2018-05-27T10:26:00.403Z,27.43
2018-05-27T10:27:00.343Z,27.50
2018-05-27T10:28:53.328Z,27.40
2018-05-27T10:29:53.290Z,27.46
2018-05-27T10:31:46.280Z,27.40
2018-05-27T10:32:46.249Z,27.42
2018-05-27T10:34:39.168Z,27.40
2018-05-27T10:35:39.145Z,27.42
2018-05-27T10:37:32.115Z,27.35
2018-05-27T10:38:32.096Z,27.34
2018-05-27T10:40:24.977Z,27.39
2018-05-27T10:41:24.953Z,27.39
2018-05-27T10:43:17.824Z,27.28
2018-05-27T10:44:17.808Z,27.25
2018-05-27T10:45:17.793Z,27.24
2018-05-27T10:46:17.779Z,27.38
2018-05-27T10:47:17.766Z,27.30
2018-05-27T10:48:17.762Z,27.34
2018-05-27T10:49:17.743Z,27.35
2018-05-27T10:50:17.729Z,27.28
2018-05-27T10:51:17.720Z,27.24
2018-05-27T10:52:17.704Z,27.23
2018-05-27T10:53:17.691Z,27.25
2018-05-27T10:54:17.677Z,27.27
2018-05-27T10:55:17.666Z,27.27
2018-05-27T10:56:17.654Z,27.25
2018-05-27T10:57:17.641Z,27.27
2018-05-27T10:58:17.627Z,27.24
2018-05-27T10:59:17.614Z,27.28
2018-05-27T11:00:17.603Z,27.25
2018-05-27T11:01:17.588Z,27.25
2018-05-27T11:02:17.577Z,27.25
2018-05-27T11:03:17.562Z,27.30
2018-05-27T11:04:17.554Z,27.13
2018-05-27T11:05:17.537Z,27.16
2018-05-27T11:06:17.525Z,27.21
2018-05-27T11:07:17.515Z,27.18
2018-05-27T11:08:17.501Z,27.18
2018-05-27T11:10:49.149Z,27.24
2018-05-27T11:11:49.128Z,27.28
2018-05-27T11:12:49.115Z,27.25
2018-05-27T11:13:49.100Z,27.18
2018-05-27T11:14:49.089Z,27.24
2018-05-27T11:15:49.076Z,27.16
2018-05-27T11:16:49.080Z,27.08
2018-05-27T11:19:20.992Z,27.23
2018-05-27T11:20:20.709Z,27.02
2018-05-27T11:22:13.682Z,27.12
2018-05-27T11:23:13.663Z,27.06
2018-05-27T11:25:06.543Z,27.05
2018-05-27T11:26:06.524Z,27.09
2018-05-27T11:27:59.392Z,27.15
2018-05-27T11:28:59.373Z,27.02
2018-05-27T11:30:52.350Z,27.11
2018-05-27T11:31:52.324Z,27.11
2018-05-27T11:33:45.198Z,27.12
2018-05-27T11:34:45.181Z,27.08
2018-05-27T11:36:38.064Z,27.01
2018-05-27T11:37:38.038Z,27.09
2018-05-27T11:39:31.001Z,27.05
2018-05-27T11:40:30.986Z,26.98
2018-05-27T11:42:23.868Z,26.98
2018-05-27T11:43:23.843Z,26.98
2018-05-27T11:45:16.712Z,26.98
2018-05-27T11:46:16.697Z,26.93
2018-05-27T11:48:09.574Z,27.01
2018-05-27T11:49:09.547Z,26.88
2018-05-27T11:51:09.677Z,26.93
2018-05-27T11:52:02.499Z,26.83
2018-05-27T11:53:02.486Z,26.81
2018-05-27T11:54:02.476Z,26.86
2018-05-27T11:55:02.467Z,26.88
2018-05-27T11:56:02.459Z,26.91
2018-05-27T11:57:02.436Z,26.86
2018-05-27T11:58:02.425Z,26.88
2018-05-27T11:59:02.412Z,26.88
2018-05-27T12:00:02.398Z,26.83
2018-05-27T12:01:02.386Z,26.88
2018-05-27T12:02:02.421Z,26.84
2018-05-27T12:03:02.359Z,26.90
2018-05-27T12:04:02.348Z,26.93
2018-05-27T12:05:02.336Z,27.01
2018-05-27T12:06:02.322Z,26.98
2018-05-27T12:07:02.312Z,26.97
2018-05-27T12:08:02.297Z,26.93
2018-05-27T12:09:02.314Z,27.01
2018-05-27T12:10:02.277Z,27.02
2018-05-27T12:11:02.261Z,26.93
2018-05-27T12:12:02.247Z,27.02
2018-05-27T12:13:02.234Z,27.02
2018-05-27T12:14:02.224Z,26.98
2018-05-27T12:15:02.212Z,26.94
2018-05-27T12:16:02.207Z,26.94
2018-05-27T12:17:02.184Z,26.96
2018-05-27T12:18:02.170Z,26.96
2018-05-27T12:19:02.157Z,27.03
2018-05-27T12:20:02.146Z,27.03
2018-05-27T12:21:02.134Z,27.05
2018-05-27T12:22:02.128Z,27.02
2018-05-27T12:24:33.701Z,26.98
2018-05-27T12:25:33.676Z,26.94
2018-05-27T12:27:26.554Z,26.98
2018-05-27T12:28:26.530Z,26.94
2018-05-27T12:30:19.401Z,26.87
2018-05-27T12:31:19.384Z,26.79
2018-05-27T12:33:12.264Z,26.73
2018-05-27T12:34:12.248Z,26.66
2018-05-27T12:36:05.189Z,26.59
2018-05-27T12:37:05.174Z,26.61
2018-05-27T12:38:58.145Z,26.64
2018-05-27T12:39:58.121Z,26.61
2018-05-27T12:41:50.992Z,26.56
2018-05-27T12:42:51.045Z,26.57
2018-05-27T12:44:43.853Z,26.54
2018-05-27T12:45:43.828Z,26.54
2018-05-27T12:47:36.713Z,26.59
2018-05-27T12:48:36.676Z,26.47
2018-05-27T12:50:29.553Z,26.60
2018-05-27T12:51:29.536Z,26.59
2018-05-27T12:53:22.418Z,26.59
2018-05-27T12:54:22.382Z,26.51
2018-05-27T12:56:15.280Z,26.60
2018-05-27T12:57:15.260Z,26.61
2018-05-27T12:59:08.130Z,26.60
2018-05-27T13:00:08.108Z,26.57
2018-05-27T13:02:01.052Z,26.60
2018-05-27T13:03:00.973Z,26.54
2018-05-27T13:04:53.856Z,26.59
2018-05-27T13:05:53.850Z,26.60
2018-05-27T13:07:46.700Z,26.49
2018-05-27T13:08:46.683Z,26.57
2018-05-27T13:10:39.661Z,26.50
2018-05-27T13:11:39.633Z,26.57
2018-05-27T13:13:32.629Z,26.60
2018-05-27T13:14:32.568Z,26.61
2018-05-27T13:16:25.659Z,26.51
2018-05-27T13:17:25.509Z,26.50
2018-05-27T13:19:18.377Z,26.46
2018-05-27T13:20:18.360Z,26.51
2018-05-27T13:21:18.348Z,26.53
2018-05-27T13:22:18.337Z,26.60
2018-05-27T13:23:18.328Z,26.54
2018-05-27T13:24:18.311Z,26.49
2018-05-27T13:25:18.302Z,26.53
2018-05-27T13:26:18.286Z,26.51
2018-05-27T13:27:18.273Z,26.60
2018-05-27T13:28:18.263Z,26.57
2018-05-27T13:29:18.250Z,26.61
2018-05-27T13:30:18.234Z,26.65
2018-05-27T13:31:18.218Z,26.59
2018-05-27T13:32:18.209Z,26.60
2018-05-27T13:33:18.204Z,26.57
2018-05-27T13:34:18.184Z,26.54
2018-05-27T13:35:18.163Z,26.60
2018-05-27T13:36:18.149Z,26.59
2018-05-27T13:37:18.145Z,26.60
2018-05-27T13:38:18.135Z,26.65
2018-05-27T13:39:18.122Z,26.51
2018-05-27T13:40:18.105Z,26.59
2018-05-27T13:41:18.085Z,26.61
2018-05-27T13:42:18.081Z,26.64
2018-05-27T13:43:18.070Z,26.60
2018-05-27T13:44:18.056Z,26.54
2018-05-27T13:45:18.044Z,26.60
2018-05-27T13:46:18.071Z,26.64
2018-05-27T13:47:18.023Z,26.61
2018-05-27T13:48:18.007Z,26.68
2018-05-27T13:49:18.028Z,26.60
2018-05-27T13:50:17.981Z,26.60
2018-05-27T13:51:17.966Z,26.68
2018-05-27T13:52:17.954Z,26.66
2018-05-27T13:53:17.940Z,26.71
2018-05-27T13:54:17.953Z,26.69
2018-05-27T13:55:17.926Z,26.69
2018-05-27T13:56:17.904Z,26.71
2018-05-27T13:57:17.894Z,26.69
2018-05-27T13:58:17.875Z,26.73
2018-05-27T13:59:17.866Z,26.73
2018-05-27T14:00:17.863Z,26.72
2018-05-27T14:01:17.839Z,26.71
2018-05-27T14:02:17.826Z,26.73
2018-05-27T14:03:17.813Z,26.71